createdAt,value
2023-03-24T00:02:16.626Z,1.67
2023-03-24T00:04:46.813Z,1.73
2023-03-24T00:07:16.323Z,1.45
2023-03-24T00:09:47.214Z,1.40
2023-03-24T00:12:18.651Z,1.20
2023-03-24T00:14:49.207Z,1.88
2023-03-24T00:17:18.546Z,1.95
2023-03-24T00:19:47.711Z,1.60
2023-03-24T00:22:16.864Z,2.28
2023-03-24T00:24:46.638Z,1.98
2023-03-24T00:27:17.690Z,1.90
2023-03-24T00:29:47.045Z,2.97
2023-03-24T00:32:17.598Z,2.25
2023-03-24T00:34:49.262Z,1.58
2023-03-24T00:37:18.496Z,3.35
2023-03-24T00:39:49.733Z,1.50
2023-03-24T00:42:18.971Z,2.45
2023-03-24T00:44:48.154Z,2.50
2023-03-24T00:47:25.814Z,2.13
2023-03-24T00:49:57.924Z,3.05
2023-03-24T00:52:34.065Z,2.05
2023-03-24T00:55:04.087Z,3.40
2023-03-24T00:57:35.147Z,2.60
2023-03-24T01:00:12.683Z,2.23
2023-03-24T01:02:43.750Z,3.28
2023-03-24T01:05:14.707Z,3.20
2023-03-24T01:07:43.979Z,3.40
2023-03-24T01:10:14.813Z,2.92
2023-03-24T01:12:44.228Z,2.78
2023-03-24T01:15:16.146Z,2.80
2023-03-24T01:17:47.230Z,3.70
2023-03-24T01:20:17.151Z,2.83
2023-03-24T01:22:46.585Z,3.33
2023-03-24T01:25:17.873Z,2.15
2023-03-24T01:27:47.678Z,2.83
2023-03-24T01:30:18.492Z,4.10
2023-03-24T01:32:49.030Z,3.10
2023-03-24T01:35:18.338Z,2.72
2023-03-24T01:37:48.738Z,2.80
2023-03-24T01:40:19.545Z,2.45
2023-03-24T01:42:48.727Z,2.25
2023-03-24T01:45:51.143Z,3.80
2023-03-24T01:48:23.854Z,3.03
2023-03-24T01:50:54.617Z,1.80
2023-03-24T01:53:24.420Z,2.40
2023-03-24T01:55:53.807Z,2.10
2023-03-24T01:58:29.193Z,2.15
2023-03-24T02:01:11.130Z,2.40
2023-03-24T02:04:08.189Z,1.52
2023-03-24T02:06:41.482Z,3.25
2023-03-24T02:11:40.833Z,2.53
2023-03-24T02:14:10.574Z,2.88
2023-03-24T02:16:59.978Z,2.38
2023-03-24T02:19:55.276Z,2.53
2023-03-24T02:22:33.915Z,3.08
2023-03-24T02:25:21.569Z,2.30
2023-03-24T02:27:59.920Z,3.55
2023-03-24T02:30:40.313Z,3.15
2023-03-24T02:33:24.150Z,3.60
2023-03-24T02:36:02.933Z,3.40
2023-03-24T02:38:41.445Z,2.15
2023-03-24T02:41:16.013Z,3.03
2023-03-24T02:43:51.588Z,2.80
2023-03-24T02:46:24.686Z,2.28
2023-03-24T02:49:00.978Z,2.72
2023-03-24T02:51:34.934Z,2.72
2023-03-24T02:54:10.048Z,1.85
2023-03-24T02:56:41.860Z,2.67
2023-03-24T03:01:57.734Z,3.20
2023-03-24T03:04:33.034Z,2.83
2023-03-24T03:07:06.437Z,4.03
2023-03-24T03:09:36.133Z,2.25
2023-03-24T03:12:07.741Z,3.30
2023-03-24T03:14:39.894Z,3.42
2023-03-24T03:17:12.727Z,2.70
2023-03-24T03:19:43.257Z,2.63
2023-03-24T03:22:14.585Z,2.53
2023-03-24T03:24:46.893Z,3.37
2023-03-24T03:27:19.919Z,3.90
2023-03-24T03:29:51.254Z,2.83
2023-03-24T03:32:24.818Z,1.90
2023-03-24T03:34:56.952Z,3.20
2023-03-24T03:37:28.220Z,3.25
2023-03-24T03:39:58.260Z,2.28
2023-03-24T03:42:29.248Z,3.67
2023-03-24T03:44:58.304Z,3.15
2023-03-24T03:47:27.807Z,4.15
2023-03-24T03:49:56.982Z,2.67
2023-03-24T03:52:26.262Z,3.58
2023-03-24T03:54:56.141Z,3.15
2023-03-24T03:57:25.779Z,3.90
2023-03-24T04:00:16.680Z,4.43
2023-03-24T04:03:10.993Z,4.15
2023-03-24T04:05:46.510Z,2.70
2023-03-24T04:08:22.014Z,3.17
2023-03-24T04:11:06.496Z,3.42
2023-03-24T04:13:51.018Z,4.15
2023-03-24T04:16:31.667Z,3.47
2023-03-24T04:19:18.667Z,4.05
2023-03-24T04:21:56.149Z,3.55
2023-03-24T04:24:32.835Z,4.28
2023-03-24T04:27:09.455Z,3.08
2023-03-24T04:29:46.700Z,4.88
2023-03-24T04:32:21.737Z,3.65
2023-03-24T04:34:54.374Z,4.05
2023-03-24T04:37:47.157Z,3.53
2023-03-24T04:40:22.764Z,3.55
2023-03-24T04:42:53.505Z,3.80
2023-03-24T04:45:26.671Z,3.63
2023-03-24T04:48:20.861Z,3.20
2023-03-24T04:51:01.594Z,4.05
2023-03-24T04:53:40.291Z,2.80
2023-03-24T04:56:16.856Z,3.90
2023-03-24T04:58:58.999Z,2.60
2023-03-24T05:01:30.603Z,4.80
2023-03-24T05:04:21.794Z,5.45
2023-03-24T05:06:51.009Z,3.10
2023-03-24T05:11:52.812Z,3.88
2023-03-24T05:14:23.631Z,2.90
2023-03-24T05:16:53.115Z,3.38
2023-03-24T05:19:25.330Z,3.70
2023-03-24T05:21:54.966Z,5.50
2023-03-24T05:24:25.863Z,4.00
2023-03-24T05:26:54.907Z,3.40
2023-03-24T05:29:23.954Z,3.67
2023-03-24T05:31:53.117Z,3.92
2023-03-24T05:34:25.819Z,4.15
2023-03-24T05:37:20.986Z,4.22
2023-03-24T05:39:54.775Z,4.47
2023-03-24T05:42:51.674Z,2.38
2023-03-24T05:45:21.738Z,3.95
2023-03-24T05:47:51.578Z,3.05
2023-03-24T05:50:27.853Z,2.80
2023-03-24T05:52:57.348Z,2.85
2023-03-24T05:55:53.615Z,4.20
2023-03-24T05:58:46.058Z,3.25
2023-03-24T06:01:18.313Z,4.95
2023-03-24T06:03:49.321Z,3.05
2023-03-24T06:06:20.294Z,4.63
2023-03-24T06:08:49.905Z,2.75
2023-03-24T06:11:20.051Z,2.40
2023-03-24T06:14:05.620Z,2.90
2023-03-24T06:16:44.876Z,4.20
2023-03-24T06:19:17.949Z,3.38
2023-03-24T06:22:02.730Z,3.30
2023-03-24T06:24:36.420Z,2.58
2023-03-24T06:27:10.285Z,4.57
2023-03-24T06:29:39.489Z,2.75
2023-03-24T06:32:08.809Z,4.95
2023-03-24T06:34:43.459Z,3.00
2023-03-24T06:37:23.600Z,3.08
2023-03-24T06:39:53.469Z,3.05
2023-03-24T06:42:27.209Z,2.22
2023-03-24T06:44:56.701Z,3.33
2023-03-24T06:47:26.131Z,4.65
2023-03-24T06:49:55.563Z,3.15
2023-03-24T06:52:27.850Z,2.45
2023-03-24T06:54:58.246Z,4.35
2023-03-24T07:00:30.927Z,3.03
2023-03-24T07:03:18.858Z,3.75
2023-03-24T07:06:09.764Z,3.17
2023-03-24T07:08:40.694Z,3.53
2023-03-24T07:11:10.885Z,2.95
2023-03-24T07:13:44.155Z,2.08
2023-03-24T07:16:13.387Z,2.85
2023-03-24T07:18:43.565Z,2.25
2023-03-24T07:21:12.731Z,2.33
2023-03-24T07:23:43.224Z,2.10
2023-03-24T07:26:18.058Z,3.08
2023-03-24T07:28:51.867Z,2.78
2023-03-24T07:31:43.526Z,3.10
2023-03-24T07:34:15.732Z,4.07
2023-03-24T07:36:45.013Z,3.03
2023-03-24T07:39:19.027Z,2.28
2023-03-24T07:41:48.358Z,2.22
2023-03-24T07:44:27.520Z,2.78
2023-03-24T07:46:56.597Z,2.75
2023-03-24T07:49:26.042Z,2.40
2023-03-24T07:52:06.538Z,2.78
2023-03-24T07:54:49.969Z,2.20
2023-03-24T07:57:38.309Z,2.83
2023-03-24T08:00:16.022Z,1.52
2023-03-24T08:02:52.928Z,2.10
2023-03-24T08:05:42.168Z,2.13
2023-03-24T08:08:21.488Z,2.28
2023-03-24T08:10:51.916Z,2.28
2023-03-24T08:13:20.885Z,2.38
2023-03-24T08:15:50.019Z,1.90
2023-03-24T08:18:19.143Z,2.10
2023-03-24T08:20:48.173Z,2.25
2023-03-24T08:23:17.848Z,2.67
2023-03-24T08:25:47.809Z,1.75
2023-03-24T08:28:18.662Z,2.17
2023-03-24T08:30:48.001Z,1.90
2023-03-24T08:33:17.845Z,1.73
2023-03-24T08:35:48.680Z,2.03
2023-03-24T08:38:19.016Z,4.00
2023-03-24T08:40:48.967Z,3.20
2023-03-24T08:43:23.141Z,2.00
2023-03-24T08:45:52.141Z,2.22
2023-03-24T08:48:21.798Z,1.77
2023-03-24T08:50:50.946Z,1.73
2023-03-24T08:53:20.001Z,1.70
2023-03-24T08:55:49.796Z,2.10
2023-03-24T08:58:22.377Z,2.95
2023-03-24T09:00:52.184Z,1.90
2023-03-24T09:03:22.631Z,2.35
2023-03-24T09:05:52.399Z,2.45
2023-03-24T09:08:22.065Z,1.63
2023-03-24T09:10:51.421Z,2.83
2023-03-24T09:13:23.020Z,2.72
2023-03-24T09:15:54.751Z,2.88
2023-03-24T09:18:23.974Z,1.88
2023-03-24T09:20:53.410Z,1.38
2023-03-24T09:23:22.965Z,2.92
2023-03-24T09:25:53.020Z,1.98
2023-03-24T09:28:23.624Z,1.80
2023-03-24T09:30:53.139Z,1.90
2023-03-24T09:33:23.947Z,3.05
2023-03-24T09:35:58.478Z,2.53
2023-03-24T09:38:30.773Z,1.92
2023-03-24T09:41:02.465Z,1.95
2023-03-24T09:43:36.417Z,2.75
2023-03-24T09:46:07.086Z,2.28
2023-03-24T09:48:39.932Z,1.08
2023-03-24T09:51:10.947Z,1.73
2023-03-24T09:53:44.532Z,1.70
2023-03-24T09:56:15.475Z,1.80
2023-03-24T09:58:47.972Z,1.60
2023-03-24T10:01:18.898Z,2.25
2023-03-24T10:03:48.586Z,2.60
2023-03-24T10:06:23.478Z,2.75
2023-03-24T10:08:55.973Z,1.55
2023-03-24T10:11:28.749Z,2.72
2023-03-24T10:14:05.384Z,2.08
2023-03-24T10:16:37.848Z,1.45
2023-03-24T10:19:14.963Z,1.40
2023-03-24T10:21:47.988Z,1.85
2023-03-24T10:24:20.669Z,1.60
2023-03-24T10:26:52.777Z,2.33
2023-03-24T10:31:53.313Z,1.35
2023-03-24T10:34:30.919Z,1.30
2023-03-24T10:37:01.161Z,1.30
2023-03-24T10:39:42.094Z,1.42
2023-03-24T10:42:19.353Z,1.60
2023-03-24T10:44:48.784Z,2.17
2023-03-24T10:47:21.396Z,2.25
2023-03-24T10:49:55.880Z,1.48
2023-03-24T10:52:25.607Z,2.92
2023-03-24T10:54:58.591Z,1.48
2023-03-24T10:57:28.628Z,1.05
2023-03-24T11:00:01.538Z,1.15
2023-03-24T11:02:34.105Z,2.47
2023-03-24T11:05:05.432Z,0.95
2023-03-24T11:07:36.032Z,1.00
2023-03-24T11:10:09.033Z,0.90
2023-03-24T11:12:39.688Z,1.48
2023-03-24T11:15:21.249Z,1.65
2023-03-24T11:17:57.261Z,1.20
2023-03-24T11:20:28.512Z,1.85
2023-03-24T11:22:58.688Z,1.27
2023-03-24T11:25:28.535Z,1.23
2023-03-24T11:28:01.031Z,1.05
2023-03-24T11:30:31.774Z,1.33
2023-03-24T11:33:05.225Z,1.48
2023-03-24T11:35:59.313Z,1.05
2023-03-24T11:38:30.856Z,1.35
2023-03-24T11:41:02.469Z,1.10
2023-03-24T11:43:31.863Z,1.63
2023-03-24T11:46:02.537Z,1.02
2023-03-24T11:48:41.257Z,1.20
2023-03-24T11:51:12.893Z,1.40
2023-03-24T11:53:45.408Z,1.08
2023-03-24T11:56:17.524Z,0.80
2023-03-24T12:01:18.949Z,1.25
2023-03-24T12:04:06.259Z,1.17
2023-03-24T12:06:40.791Z,2.25
2023-03-24T12:09:16.383Z,1.08
2023-03-24T12:11:53.550Z,1.55
2023-03-24T12:14:27.273Z,1.13
2023-03-24T12:17:00.944Z,1.80
2023-03-24T12:19:52.198Z,1.05
2023-03-24T12:22:27.209Z,1.83
2023-03-24T12:25:05.716Z,1.20
2023-03-24T12:27:39.144Z,1.63
2023-03-24T12:30:10.582Z,1.17
2023-03-24T12:32:49.034Z,1.48
2023-03-24T12:35:27.882Z,1.23
2023-03-24T12:38:03.794Z,1.83
2023-03-24T12:40:50.930Z,1.80
2023-03-24T12:43:26.249Z,1.48
2023-03-24T12:45:58.669Z,1.23
2023-03-24T12:48:36.837Z,1.05
2023-03-24T12:51:13.147Z,1.42
2023-03-24T12:53:46.607Z,1.10
2023-03-24T12:56:17.804Z,1.30
2023-03-24T12:58:49.134Z,1.58
2023-03-24T13:01:24.276Z,3.05
2023-03-24T13:03:57.112Z,2.45
2023-03-24T13:06:29.972Z,2.75
2023-03-24T13:09:04.988Z,1.65
2023-03-24T13:11:38.616Z,1.52
2023-03-24T13:14:11.019Z,2.65
2023-03-24T13:16:41.264Z,1.48
2023-03-24T13:19:13.877Z,2.40
2023-03-24T13:21:45.327Z,1.33
2023-03-24T13:24:15.583Z,1.58
2023-03-24T13:26:50.197Z,1.17
2023-03-24T13:29:32.979Z,1.85
2023-03-24T13:32:11.284Z,1.10
2023-03-24T13:34:42.755Z,1.17
2023-03-24T13:37:15.046Z,1.23
2023-03-24T13:39:48.280Z,1.75
2023-03-24T13:42:29.479Z,0.80
2023-03-24T13:45:00.171Z,0.90
2023-03-24T13:47:32.422Z,1.50
2023-03-24T13:50:02.445Z,2.65
2023-03-24T13:52:36.527Z,1.10
2023-03-24T13:55:10.852Z,2.30
2023-03-24T13:57:42.993Z,2.05
2023-03-24T14:02:47.019Z,1.63
2023-03-24T14:05:31.734Z,1.55
2023-03-24T14:08:19.053Z,1.38
2023-03-24T14:10:49.784Z,1.70
2023-03-24T14:13:23.029Z,1.92
2023-03-24T14:15:53.559Z,1.75
2023-03-24T14:18:43.372Z,1.77
2023-03-24T14:21:13.011Z,1.00
2023-03-24T14:23:45.788Z,1.85
2023-03-24T14:26:15.610Z,1.60
2023-03-24T14:28:46.833Z,1.35
2023-03-24T14:31:24.546Z,1.33
2023-03-24T14:34:03.044Z,1.85
2023-03-24T14:36:35.182Z,1.55
2023-03-24T14:39:31.536Z,1.58
2023-03-24T14:42:01.993Z,1.17
2023-03-24T14:44:52.097Z,1.20
2023-03-24T14:47:22.267Z,1.50
2023-03-24T14:49:52.867Z,0.88
2023-03-24T14:52:25.223Z,1.20
2023-03-24T14:54:58.224Z,0.82
2023-03-24T14:57:29.827Z,1.05
2023-03-24T15:00:07.064Z,1.17
2023-03-24T15:02:38.291Z,0.90
2023-03-24T15:05:26.187Z,2.40
2023-03-24T15:08:03.381Z,0.70
2023-03-24T15:10:38.382Z,1.65
2023-03-24T15:13:25.610Z,1.00
2023-03-24T15:15:54.933Z,1.67
2023-03-24T15:18:25.507Z,2.70
2023-03-24T15:20:54.794Z,1.52
2023-03-24T15:23:25.000Z,0.63
2023-03-24T15:25:55.778Z,2.53
2023-03-24T15:28:28.715Z,1.42
2023-03-24T15:30:59.518Z,1.40
2023-03-24T15:33:31.075Z,1.27
2023-03-24T15:36:02.343Z,1.33
2023-03-24T15:38:32.607Z,1.00
2023-03-24T15:41:03.458Z,1.58
2023-03-24T15:43:34.515Z,1.10
2023-03-24T15:46:12.260Z,0.65
2023-03-24T15:48:41.787Z,0.90
2023-03-24T15:51:12.824Z,1.13
2023-03-24T15:53:44.379Z,1.52
2023-03-24T15:56:22.410Z,1.55
2023-03-24T15:58:54.786Z,1.70
2023-03-24T16:01:31.423Z,0.93
2023-03-24T16:04:03.669Z,1.85
2023-03-24T16:09:04.160Z,1.40
2023-03-24T16:11:33.470Z,2.20
2023-03-24T16:14:08.060Z,1.30
2023-03-24T16:16:38.979Z,1.83
2023-03-24T16:19:08.117Z,1.35
2023-03-24T16:21:37.283Z,1.10
2023-03-24T16:24:06.800Z,1.10
2023-03-24T16:26:35.813Z,0.88
2023-03-24T16:29:16.613Z,0.98
2023-03-24T16:31:49.144Z,1.00
2023-03-24T16:34:19.324Z,1.10
2023-03-24T16:36:48.410Z,0.95
2023-03-24T16:39:18.295Z,1.45
2023-03-24T16:41:47.720Z,1.92
2023-03-24T16:44:18.245Z,1.90
2023-03-24T16:46:47.747Z,0.80
2023-03-24T16:49:17.575Z,2.10
2023-03-24T16:51:46.887Z,2.88
2023-03-24T16:54:16.146Z,1.15
2023-03-24T16:56:45.677Z,1.00
2023-03-24T16:59:16.293Z,2.28
2023-03-24T17:01:48.472Z,1.40
2023-03-24T17:04:19.431Z,1.17
2023-03-24T17:06:50.872Z,1.67
2023-03-24T17:09:21.034Z,1.08
2023-03-24T17:11:51.182Z,1.40
2023-03-24T17:14:20.294Z,2.15
2023-03-24T17:16:53.818Z,1.60
2023-03-24T17:19:24.845Z,1.50
2023-03-24T17:21:57.122Z,2.58
2023-03-24T17:24:26.750Z,1.65
2023-03-24T17:26:56.027Z,1.52
2023-03-24T17:29:25.084Z,2.22
2023-03-24T17:31:56.768Z,1.80
2023-03-24T17:34:26.145Z,1.80
2023-03-24T17:36:55.494Z,1.75
2023-03-24T17:39:24.451Z,2.70
2023-03-24T17:41:57.603Z,1.80
2023-03-24T17:44:27.780Z,1.48
2023-03-24T17:46:58.201Z,2.63
2023-03-24T17:49:27.621Z,1.60
2023-03-24T17:51:56.630Z,1.13
2023-03-24T17:54:26.300Z,1.95
2023-03-24T17:56:59.665Z,1.60
2023-03-24T17:59:28.885Z,2.85
2023-03-24T18:01:59.600Z,1.33
2023-03-24T18:04:28.648Z,1.50
2023-03-24T18:06:59.621Z,1.98
2023-03-24T18:09:28.699Z,1.35
2023-03-24T18:11:58.765Z,1.85
2023-03-24T18:14:28.036Z,1.10
2023-03-24T18:16:57.175Z,0.90
2023-03-24T18:19:27.824Z,2.00
2023-03-24T18:21:57.330Z,1.90
2023-03-24T18:24:27.189Z,1.02
2023-03-24T18:26:56.529Z,0.80
2023-03-24T18:29:25.739Z,0.90
2023-03-24T18:31:55.130Z,0.65
2023-03-24T18:34:24.123Z,0.40
2023-03-24T18:36:54.425Z,0.95
2023-03-24T18:39:23.754Z,0.52
2023-03-24T18:41:53.894Z,0.80
2023-03-24T18:44:24.318Z,0.63
2023-03-24T18:46:54.226Z,0.65
2023-03-24T18:49:23.262Z,0.60
2023-03-24T18:51:53.730Z,0.60
2023-03-24T18:54:22.880Z,0.70
2023-03-24T18:56:52.129Z,0.70
2023-03-24T18:59:21.422Z,1.38
2023-03-24T19:01:51.066Z,1.20
2023-03-24T19:04:20.443Z,1.77
2023-03-24T19:06:50.306Z,1.67
2023-03-24T19:09:22.774Z,1.67
2023-03-24T19:11:52.410Z,1.83
2023-03-24T19:14:21.596Z,1.58
2023-03-24T19:16:50.634Z,0.90
2023-03-24T19:19:20.687Z,1.10
2023-03-24T19:21:50.584Z,1.05
2023-03-24T19:24:21.411Z,2.38
2023-03-24T19:26:50.457Z,1.02
2023-03-24T19:29:19.851Z,1.80
2023-03-24T19:31:49.615Z,1.38
2023-03-24T19:34:18.748Z,1.40
2023-03-24T19:36:50.226Z,2.03
2023-03-24T19:39:19.250Z,2.75
2023-03-24T19:41:49.715Z,1.80
2023-03-24T19:44:19.073Z,2.15
2023-03-24T19:46:48.326Z,1.58
2023-03-24T19:49:18.956Z,2.42
2023-03-24T19:51:50.258Z,2.53
2023-03-24T19:54:19.718Z,2.20
2023-03-24T19:56:50.633Z,2.30
2023-03-24T19:59:20.075Z,2.65
2023-03-24T20:01:49.565Z,2.50
2023-03-24T20:04:19.078Z,3.33
2023-03-24T20:06:49.101Z,2.10
2023-03-24T20:09:20.246Z,2.03
2023-03-24T20:11:54.169Z,3.17
2023-03-24T20:14:26.342Z,2.83
2023-03-24T20:16:56.841Z,2.58
2023-03-24T20:19:27.285Z,2.85
2023-03-24T20:21:56.854Z,2.67
2023-03-24T20:24:26.288Z,2.63
2023-03-24T20:26:57.052Z,2.85
2023-03-24T20:29:26.335Z,2.85
2023-03-24T20:31:56.510Z,2.88
2023-03-24T20:34:26.036Z,3.72
2023-03-24T20:36:56.058Z,4.55
2023-03-24T20:39:25.370Z,2.50
2023-03-24T20:41:55.260Z,2.08
2023-03-24T20:44:26.902Z,2.22
2023-03-24T20:46:57.149Z,2.88
2023-03-24T20:49:26.963Z,4.60
2023-03-24T20:51:56.276Z,2.25
2023-03-24T20:54:25.632Z,2.13
2023-03-24T20:56:55.943Z,2.28
2023-03-24T20:59:28.776Z,3.28
2023-03-24T21:01:58.446Z,2.85
2023-03-24T21:04:27.361Z,3.53
2023-03-24T21:06:56.398Z,1.95
2023-03-24T21:09:25.713Z,3.60
2023-03-24T21:11:55.329Z,2.55
2023-03-24T21:14:25.071Z,3.63
2023-03-24T21:16:55.890Z,3.58
2023-03-24T21:19:25.061Z,3.28
2023-03-24T21:21:56.032Z,2.30
2023-03-24T21:24:25.163Z,3.10
2023-03-24T21:26:57.101Z,2.42
2023-03-24T21:31:57.209Z,2.15
2023-03-24T21:34:26.616Z,4.18
2023-03-24T21:36:56.154Z,1.83
2023-03-24T21:39:25.137Z,3.40
2023-03-24T21:41:54.729Z,2.50
2023-03-24T21:44:24.969Z,2.05
2023-03-24T21:46:53.996Z,2.75
2023-03-24T21:49:24.785Z,2.67
2023-03-24T21:51:58.803Z,2.10
2023-03-24T21:54:28.198Z,2.72
2023-03-24T21:56:57.464Z,2.53
2023-03-24T21:59:29.298Z,2.50
2023-03-24T22:01:58.272Z,2.22
2023-03-24T22:04:29.350Z,1.95
2023-03-24T22:06:58.475Z,1.57
2023-03-24T22:09:29.023Z,3.28
2023-03-24T22:11:59.552Z,2.08
2023-03-24T22:14:29.000Z,2.38
2023-03-24T22:16:58.127Z,3.97
2023-03-24T22:19:27.590Z,2.47
2023-03-24T22:22:01.716Z,3.72
2023-03-24T22:24:32.740Z,2.30
2023-03-24T22:27:02.282Z,3.33
2023-03-24T22:29:31.675Z,2.13
2023-03-24T22:32:00.908Z,2.30
2023-03-24T22:34:30.630Z,2.05
2023-03-24T22:37:01.669Z,2.08
2023-03-24T22:39:31.876Z,3.40
2023-03-24T22:42:07.714Z,1.70
2023-03-24T22:44:41.556Z,2.05
2023-03-24T22:47:11.559Z,2.33
2023-03-24T22:49:41.489Z,2.13
2023-03-24T22:52:12.376Z,2.83
2023-03-24T22:54:41.607Z,3.03
2023-03-24T22:57:10.909Z,2.25
2023-03-24T22:59:40.001Z,4.28
2023-03-24T23:02:10.505Z,2.38
2023-03-24T23:04:42.980Z,1.90
2023-03-24T23:07:16.202Z,2.05
2023-03-24T23:09:47.964Z,2.92
2023-03-24T23:12:17.378Z,1.63
2023-03-24T23:14:46.567Z,2.00
2023-03-24T23:17:15.976Z,2.10
2023-03-24T23:19:45.222Z,1.63
2023-03-24T23:22:15.825Z,2.22
2023-03-24T23:24:45.107Z,2.30
2023-03-24T23:27:14.472Z,1.67
2023-03-24T23:29:44.351Z,1.30
2023-03-24T23:32:13.375Z,2.72
2023-03-24T23:34:45.789Z,2.45
2023-03-24T23:37:18.273Z,1.40
2023-03-24T23:39:50.272Z,1.67
2023-03-24T23:44:48.233Z,2.33
2023-03-24T23:47:20.601Z,1.85
2023-03-24T23:52:20.223Z,1.58
2023-03-24T23:54:49.759Z,2.10
2023-03-24T23:57:19.672Z,1.80
2023-03-24T23:59:49.485Z,1.23
